createdAt,value
2018-03-03T00:04:20.076Z,33.97
2018-03-03T00:09:57.718Z,33.40
2018-03-03T00:15:13.092Z,28.07
2018-03-03T00:17:49.145Z,28.83
2018-03-03T00:20:32.779Z,29.30
2018-03-03T00:25:56.470Z,24.67
2018-03-03T00:28:30.401Z,20.83
2018-03-03T00:31:06.500Z,16.60
2018-03-03T00:33:40.544Z,22.50
2018-03-03T00:36:23.779Z,13.20
2018-03-03T00:39:03.319Z,19.47
2018-03-03T00:41:40.159Z,13.70
2018-03-03T00:44:19.831Z,17.13
2018-03-03T00:46:54.877Z,17.23
2018-03-03T00:49:29.063Z,18.67
2018-03-03T00:52:04.830Z,13.30
2018-03-03T00:54:47.567Z,14.47
2018-03-03T00:57:20.755Z,14.57
2018-03-03T00:59:58.398Z,18.07
2018-03-03T01:02:44.169Z,24.43
2018-03-03T01:05:17.626Z,21.90
2018-03-03T01:07:57.977Z,27.13
2018-03-03T01:10:32.236Z,20.90
2018-03-03T01:23:47.211Z,22.73
2018-03-03T01:26:29.362Z,16.83
2018-03-03T01:29:04.153Z,28.87
2018-03-03T01:34:13.208Z,28.10
2018-03-03T01:42:07.964Z,27.13
2018-03-03T01:50:13.619Z,24.60
2018-03-03T01:52:56.026Z,36.60
2018-03-03T01:55:32.079Z,42.97
2018-03-03T01:58:15.615Z,24.77
2018-03-03T02:06:34.308Z,47.90
2018-03-03T02:11:15.936Z,30.77
2018-03-03T02:16:55.318Z,32.67
2018-03-03T02:22:17.526Z,42.43
2018-03-03T02:24:52.041Z,44.90
2018-03-03T02:35:52.163Z,62.77
2018-03-03T02:41:20.012Z,40.37
2018-03-03T02:49:43.533Z,60.53
2018-03-03T02:55:06.791Z,44.93
2018-03-03T03:00:31.095Z,46.50
2018-03-03T03:05:54.874Z,62.37
2018-03-03T03:08:30.113Z,56.73
2018-03-03T03:11:08.520Z,48.23
2018-03-03T03:19:27.958Z,51.47
2018-03-03T03:25:01.721Z,65.30
2018-03-03T03:47:02.820Z,36.03
2018-03-03T03:52:33.306Z,37.57
2018-03-03T03:58:03.706Z,23.10
2018-03-03T04:00:38.639Z,31.50
2018-03-03T04:06:18.415Z,33.93
2018-03-03T04:14:28.707Z,38.80
2018-03-03T04:17:08.586Z,28.62
2018-03-03T04:22:29.644Z,30.77
2018-03-03T04:27:56.728Z,33.30
2018-03-03T04:30:47.352Z,25.13
2018-03-03T04:33:37.862Z,33.47
2018-03-03T04:36:23.988Z,32.40
2018-03-03T04:42:05.461Z,25.30
2018-03-03T04:44:42.174Z,29.23
2018-03-03T04:47:20.425Z,23.30
2018-03-03T04:49:56.011Z,22.20
2018-03-03T04:55:26.623Z,28.63
2018-03-03T04:58:08.164Z,28.90
2018-03-03T08:57:57.493Z,22.03
2018-03-03T09:00:26.184Z,22.13
2018-03-03T09:09:41.416Z,24.40
2018-03-03T09:12:09.197Z,17.70
2018-03-03T09:14:36.988Z,19.30
2018-03-03T09:17:05.539Z,13.07
2018-03-03T09:22:07.511Z,13.50
2018-03-03T09:24:35.326Z,9.13
2018-03-03T09:27:03.102Z,24.73
2018-03-03T09:29:31.006Z,22.73
2018-03-03T09:48:07.329Z,26.40
2018-03-03T09:50:35.145Z,35.50
2018-03-03T09:53:02.934Z,21.63
2018-03-03T09:55:31.407Z,17.60
2018-03-03T09:57:59.209Z,21.23
2018-03-03T10:00:27.167Z,16.03
2018-03-03T10:02:54.988Z,13.27
2018-03-03T10:05:22.876Z,23.67
2018-03-03T10:07:50.708Z,36.40
2018-03-03T10:10:19.095Z,20.63
2018-03-03T10:12:46.874Z,23.23
2018-03-03T10:15:14.648Z,21.30
2018-03-03T10:17:42.518Z,27.23
2018-03-03T10:20:10.340Z,27.47
2018-03-03T10:22:38.202Z,30.77
2018-03-03T10:25:06.133Z,16.33
2018-03-03T10:27:34.681Z,22.80
2018-03-03T10:30:02.461Z,23.63
2018-03-03T10:32:31.007Z,23.10
2018-03-03T10:34:58.774Z,32.50
2018-03-03T10:37:26.558Z,26.23
2018-03-03T10:39:54.351Z,21.07
2018-03-03T10:42:22.925Z,28.27
2018-03-03T10:44:51.684Z,24.67
2018-03-03T10:47:19.497Z,31.43
2018-03-03T10:49:47.273Z,23.07
2018-03-03T10:52:15.045Z,24.80
2018-03-03T10:54:48.617Z,23.47
2018-03-03T10:57:17.194Z,24.10
2018-03-03T10:59:45.741Z,29.93
2018-03-03T11:02:13.605Z,34.70
2018-03-03T11:04:42.512Z,26.57
2018-03-03T11:07:10.351Z,30.60
2018-03-03T11:09:38.140Z,22.60
2018-03-03T11:12:05.917Z,28.03
2018-03-03T11:14:33.715Z,27.20
2018-03-03T11:17:01.548Z,28.90
2018-03-03T11:19:29.472Z,31.30
2018-03-03T11:21:57.300Z,27.13
2018-03-03T11:24:25.852Z,18.07
2018-03-03T11:26:53.667Z,32.83
2018-03-03T11:29:21.463Z,31.70
2018-03-03T11:31:49.265Z,30.43
2018-03-03T11:34:17.819Z,23.40
2018-03-03T11:36:45.594Z,22.07
2018-03-03T11:39:13.407Z,27.92
2018-03-03T11:41:41.255Z,27.52
2018-03-03T11:44:09.802Z,28.07
2018-03-03T11:46:37.594Z,25.70
2018-03-03T11:49:06.218Z,35.67
2018-03-03T11:51:34.018Z,28.67
2018-03-03T11:54:01.859Z,33.75
2018-03-03T11:56:29.649Z,25.00
2018-03-03T11:58:57.473Z,22.50
2018-03-03T12:01:25.256Z,30.90
2018-03-03T12:03:53.024Z,29.60
2018-03-03T12:06:20.869Z,23.93
2018-03-03T12:08:48.701Z,24.13
2018-03-03T12:11:17.257Z,26.93
2018-03-03T12:13:45.052Z,40.97
2018-03-03T12:16:12.873Z,28.93
2018-03-03T12:18:40.678Z,16.80
2018-03-03T12:21:08.469Z,18.87
2018-03-03T12:23:36.288Z,24.23
2018-03-03T12:26:04.125Z,72.27
2018-03-03T12:28:31.993Z,39.20
2018-03-03T12:30:59.847Z,39.63
2018-03-03T12:33:27.679Z,36.17
2018-03-03T12:35:55.541Z,30.00
2018-03-03T12:38:24.088Z,33.00
2018-03-03T12:40:51.981Z,23.70
2018-03-03T12:43:20.618Z,29.07
2018-03-03T12:45:48.452Z,34.53
2018-03-03T12:48:16.258Z,24.33
2018-03-03T12:50:44.109Z,16.10
2018-03-03T12:53:11.923Z,24.30
2018-03-03T12:55:40.538Z,15.83
2018-03-03T12:58:08.939Z,27.97
2018-03-03T13:00:36.864Z,19.00
2018-03-03T13:03:05.414Z,27.93
2018-03-03T13:05:33.207Z,16.83
2018-03-03T13:08:01.794Z,15.07
2018-03-03T13:10:30.464Z,24.60
2018-03-03T13:12:59.027Z,25.43
2018-03-03T13:15:26.841Z,23.47
2018-03-03T13:17:55.754Z,22.23
2018-03-03T13:20:23.628Z,36.00
2018-03-03T13:22:51.542Z,24.87
2018-03-03T13:25:20.189Z,23.00
2018-03-03T13:27:47.970Z,30.97
2018-03-03T13:30:15.763Z,36.77
2018-03-03T13:32:44.334Z,31.63
2018-03-03T13:35:12.881Z,40.20
2018-03-03T13:37:40.920Z,29.27
2018-03-03T13:40:08.694Z,28.37
2018-03-03T13:42:36.465Z,31.10
2018-03-03T13:45:04.366Z,25.33
2018-03-03T13:47:32.937Z,20.10
2018-03-03T13:50:00.794Z,24.77
2018-03-03T13:52:28.578Z,20.23
2018-03-03T13:54:56.412Z,19.43
2018-03-03T13:57:24.209Z,26.30
2018-03-03T13:59:52.020Z,21.83
2018-03-03T14:02:19.829Z,20.60
2018-03-03T14:04:47.638Z,33.17
2018-03-03T14:07:16.186Z,27.80
2018-03-03T14:09:43.987Z,20.03
2018-03-03T14:12:11.779Z,18.13
2018-03-03T14:14:39.705Z,16.53
2018-03-03T14:17:07.576Z,11.70
2018-03-03T14:19:36.215Z,19.10
2018-03-03T14:22:04.002Z,15.57
2018-03-03T14:24:31.881Z,11.87
2018-03-03T14:27:00.672Z,15.17
2018-03-03T14:29:28.453Z,12.43
2018-03-03T14:31:56.238Z,21.53
2018-03-03T14:34:24.030Z,14.90
2018-03-03T14:36:51.897Z,20.33
2018-03-03T14:39:19.756Z,12.83
2018-03-03T14:41:47.585Z,11.93
2018-03-03T14:44:15.437Z,10.60
2018-03-03T14:46:44.068Z,10.53
2018-03-03T14:49:11.893Z,27.80
2018-03-03T14:51:39.687Z,12.83
2018-03-03T14:54:08.237Z,14.40
2018-03-03T14:56:36.823Z,18.83
2018-03-03T14:59:04.673Z,11.67
2018-03-03T15:01:33.333Z,5.10
2018-03-03T15:04:01.225Z,4.87
2018-03-03T15:06:29.904Z,3.07
2018-03-03T15:08:58.494Z,1.30
2018-03-03T15:11:26.353Z,2.67
2018-03-03T15:13:54.143Z,1.43
2018-03-03T15:16:21.937Z,2.60
2018-03-03T15:18:49.716Z,2.10
2018-03-03T15:21:17.513Z,2.27
2018-03-03T15:23:46.575Z,2.37
2018-03-03T15:26:14.345Z,2.33
2018-03-03T15:28:42.142Z,2.10
2018-03-03T15:31:10.873Z,1.70
2018-03-03T15:33:38.684Z,1.20
2018-03-03T15:36:07.292Z,2.50
2018-03-03T15:38:35.829Z,6.97
2018-03-03T15:41:03.635Z,2.23
2018-03-03T15:43:31.459Z,1.83
2018-03-03T15:45:59.238Z,1.80
2018-03-03T15:48:27.059Z,2.30
2018-03-03T15:50:54.878Z,1.80
2018-03-03T15:53:23.424Z,3.13
2018-03-03T15:55:51.273Z,2.17
2018-03-03T15:58:19.085Z,3.33
2018-03-03T16:00:46.989Z,4.80
2018-03-03T16:03:14.787Z,2.20
2018-03-03T16:05:42.586Z,2.30
2018-03-03T16:08:11.223Z,2.23
2018-03-03T16:10:39.026Z,2.90
2018-03-03T16:13:06.872Z,3.90
2018-03-03T16:15:34.672Z,3.73
2018-03-03T16:18:03.299Z,2.20
2018-03-03T16:20:31.083Z,6.10
2018-03-03T16:22:58.905Z,2.70
2018-03-03T16:25:26.719Z,3.73
2018-03-03T16:27:55.287Z,2.00
2018-03-03T16:30:23.070Z,6.03
2018-03-03T16:32:50.870Z,2.93
2018-03-03T16:35:19.432Z,4.83
2018-03-03T16:37:48.162Z,4.23
2018-03-03T16:40:15.947Z,5.57
2018-03-03T16:42:44.682Z,7.13
2018-03-03T16:45:13.226Z,1.80
2018-03-03T16:47:41.917Z,3.13
2018-03-03T16:50:09.723Z,7.33
2018-03-03T16:52:38.294Z,5.80
2018-03-03T16:55:06.166Z,4.27
2018-03-03T16:57:34.951Z,6.00
2018-03-03T17:00:03.638Z,3.97
2018-03-03T17:02:32.261Z,8.33
2018-03-03T17:05:01.656Z,4.27
2018-03-03T17:07:29.829Z,3.80
2018-03-03T17:09:58.578Z,8.87
2018-03-03T17:12:26.362Z,5.17
2018-03-03T17:14:54.938Z,3.97
2018-03-03T17:17:22.903Z,4.30
2018-03-03T17:19:50.731Z,10.80
2018-03-03T17:22:18.521Z,11.47
2018-03-03T17:24:46.318Z,5.83
2018-03-03T17:27:16.078Z,5.13
2018-03-03T17:29:44.756Z,2.83
2018-03-03T17:32:14.279Z,6.00
2018-03-03T17:34:44.588Z,8.13
2018-03-03T17:37:12.465Z,3.87
2018-03-03T17:39:42.666Z,4.03
2018-03-03T17:42:11.257Z,4.27
2018-03-03T17:44:39.138Z,4.60
2018-03-03T17:47:08.017Z,4.77
2018-03-03T17:49:36.579Z,9.30
2018-03-03T17:52:04.741Z,6.30
2018-03-03T17:54:32.920Z,6.23
2018-03-03T17:57:00.788Z,4.00
2018-03-03T17:59:28.571Z,7.20
2018-03-03T18:01:56.367Z,6.50
2018-03-03T18:04:24.968Z,10.40
2018-03-03T18:06:53.630Z,6.50
2018-03-03T18:09:21.463Z,8.87
2018-03-03T18:11:59.230Z,5.83
2018-03-03T18:14:27.050Z,5.40
2018-03-03T18:16:54.851Z,4.03
2018-03-03T18:19:34.162Z,6.90
2018-03-03T18:22:02.030Z,7.67
2018-03-03T18:24:36.769Z,5.87
2018-03-03T18:27:05.386Z,5.90
2018-03-03T18:29:33.242Z,4.30
2018-03-03T18:32:01.188Z,6.97
2018-03-03T18:34:29.059Z,6.00
2018-03-03T18:36:56.871Z,5.40
2018-03-03T18:39:24.709Z,6.17
2018-03-03T18:41:52.558Z,5.47
2018-03-03T18:44:20.386Z,5.00
2018-03-03T18:46:50.480Z,6.80
2018-03-03T18:49:18.548Z,6.00
2018-03-03T18:51:46.565Z,5.47
2018-03-03T18:54:15.168Z,2.70
2018-03-03T18:56:42.954Z,7.80
2018-03-03T18:59:10.767Z,7.80
2018-03-03T19:01:38.908Z,8.83
2018-03-03T19:04:06.686Z,2.67
2018-03-03T19:06:34.460Z,4.30
2018-03-03T19:09:03.142Z,4.53
2018-03-03T19:11:30.957Z,6.30
2018-03-03T19:13:58.757Z,3.43
2018-03-03T19:16:27.361Z,4.87
2018-03-03T19:18:55.141Z,5.90
2018-03-03T19:21:23.679Z,4.67
2018-03-03T19:23:51.499Z,9.83
2018-03-03T19:26:20.686Z,3.63
2018-03-03T19:28:49.235Z,6.53
2018-03-03T19:31:17.018Z,9.80
2018-03-03T19:33:44.788Z,5.10
2018-03-03T19:36:12.670Z,4.77
2018-03-03T19:38:40.480Z,4.87
2018-03-03T19:41:08.257Z,3.00
2018-03-03T19:43:36.036Z,3.50
2018-03-03T19:46:03.926Z,5.10
2018-03-03T19:48:32.476Z,5.57
2018-03-03T19:51:00.298Z,4.43
2018-03-03T19:53:28.252Z,2.77
2018-03-03T19:55:56.054Z,2.60
2018-03-03T19:58:23.814Z,8.27
2018-03-03T20:00:51.629Z,9.50
2018-03-03T20:03:19.499Z,6.50
2018-03-03T20:05:48.150Z,10.30
2018-03-03T20:08:16.197Z,12.03
2018-03-03T20:10:43.972Z,5.23
2018-03-03T20:13:11.759Z,20.10
2018-03-03T20:15:39.575Z,16.77
2018-03-03T20:18:07.361Z,6.70
2018-03-03T20:20:35.152Z,3.17
2018-03-03T20:23:02.966Z,2.63
2018-03-03T20:25:30.780Z,2.67
2018-03-03T20:27:58.562Z,3.83
2018-03-03T20:30:26.380Z,4.60
2018-03-03T20:32:54.162Z,2.90
2018-03-03T20:35:21.955Z,4.83
2018-03-03T20:37:49.845Z,7.50
2018-03-03T20:40:17.643Z,4.80
2018-03-03T20:42:45.405Z,2.90
2018-03-03T20:45:13.234Z,6.77
2018-03-03T20:47:41.810Z,1.33
2018-03-03T20:50:10.412Z,4.70
2018-03-03T20:52:38.309Z,5.10
2018-03-03T20:55:06.097Z,2.60
2018-03-03T20:57:33.913Z,2.20
2018-03-03T21:00:01.743Z,4.27
2018-03-03T21:02:29.561Z,3.27
2018-03-03T21:04:57.369Z,5.00
2018-03-03T21:07:25.197Z,2.27
2018-03-03T21:09:52.970Z,2.03
2018-03-03T21:12:23.805Z,2.17
2018-03-03T21:14:51.642Z,3.20
2018-03-03T21:17:19.440Z,2.80
2018-03-03T21:19:47.222Z,3.27
2018-03-03T21:22:15.014Z,3.20
2018-03-03T21:24:43.594Z,2.97
2018-03-03T21:27:12.191Z,3.63
2018-03-03T21:29:39.989Z,8.90
2018-03-03T21:32:07.792Z,4.70
2018-03-03T21:34:35.562Z,6.67
2018-03-03T21:37:03.345Z,3.70
2018-03-03T21:39:31.843Z,9.57
2018-03-03T21:41:59.667Z,4.50
2018-03-03T21:44:27.587Z,5.57
2018-03-03T21:46:55.411Z,6.13
2018-03-03T21:49:23.993Z,5.27
2018-03-03T21:51:52.563Z,5.07
2018-03-03T21:54:20.408Z,6.80
2018-03-03T21:56:48.189Z,4.13
2018-03-03T21:59:16.923Z,8.23
2018-03-03T22:01:44.693Z,3.77
2018-03-03T22:04:12.474Z,7.63
2018-03-03T22:06:40.296Z,4.90
2018-03-03T22:09:08.853Z,7.77
2018-03-03T22:11:36.653Z,3.53
2018-03-03T22:14:04.433Z,3.77
2018-03-03T22:16:32.280Z,4.30
2018-03-03T22:19:00.065Z,6.77
2018-03-03T22:21:27.961Z,8.50
2018-03-03T22:23:55.730Z,5.63
2018-03-03T22:26:23.570Z,4.27
2018-03-03T22:28:51.348Z,4.93
2018-03-03T22:31:19.127Z,4.67
2018-03-03T22:33:46.897Z,3.03
2018-03-03T22:36:14.678Z,5.37
2018-03-03T22:38:42.493Z,4.20
2018-03-03T22:41:10.356Z,4.55
2018-03-03T22:43:38.185Z,5.30
2018-03-03T22:46:06.724Z,6.10
2018-03-03T22:48:34.587Z,3.93
2018-03-03T22:51:02.386Z,2.10
2018-03-03T22:53:30.194Z,3.73
2018-03-03T22:55:57.989Z,5.50
2018-03-03T22:58:25.769Z,3.80
2018-03-03T23:00:53.576Z,2.57
2018-03-03T23:03:21.400Z,4.73
2018-03-03T23:05:50.088Z,3.13
2018-03-03T23:08:17.857Z,4.40
2018-03-03T23:10:45.681Z,10.43
2018-03-03T23:13:13.458Z,4.90
2018-03-03T23:15:42.079Z,3.53
2018-03-03T23:18:10.621Z,5.53
2018-03-03T23:20:38.437Z,4.20
2018-03-03T23:23:06.991Z,6.60
2018-03-03T23:25:34.778Z,4.90
2018-03-03T23:28:03.322Z,3.10
2018-03-03T23:30:31.135Z,7.63
2018-03-03T23:32:58.954Z,9.60
2018-03-03T23:35:26.746Z,7.97
2018-03-03T23:37:55.303Z,5.07
2018-03-03T23:40:23.099Z,6.10
2018-03-03T23:42:51.719Z,6.83
2018-03-03T23:45:19.525Z,8.17
2018-03-03T23:47:47.324Z,6.90
2018-03-03T23:50:15.110Z,4.33
2018-03-03T23:52:42.934Z,5.75
2018-03-03T23:55:10.735Z,5.47
2018-03-03T23:57:38.600Z,8.27
